Camarillo, CA

7:42 AM PST on February 06, 2016 (GMT -0800)
Camarillo | | Change Station
CLOSE
Current Station
Airport
Location: Camarillo,
Elevation: 75 ft
Nearby Weather Stations
Active Advisory: Wind Advisory

Elev 75 ft 34.21 °N, 119.09 °W | Updated 47 minutes ago

Clear
Clear
62 °F
Feels Like 62 °F
N
13
Wind Variable Wind from East

Today
High -- | Low -- °F
--% Chance of Precip.
Yesterday
High -- | Low -- °F
Precip. -- in
Pressure 30.30 in
Visibility 10.0 miles
Clouds Clear
Dew Point 23 °F
Humidity 22%
Rainfall 0.00 in
Snow Depth Not available.
6:50 AM 5:31 PM
Waning Crescent, 5% visible
METAR KCMA 061455Z 09011KT 10SM CLR 17/M05 A3027 RMK AO2 SLP258 T01671050 53002 $
Pressure 30.30 in
Visibility 10.0 miles
Clouds Clear
Dew Point 23 °F
Humidity 22%
Rainfall 0.00 in
Snow Depth Not available.
6:50 AM 5:31 PM
Waning Crescent, 5% visible
METAR KCMA 061455Z 09011KT 10SM CLR 17/M05 A3027 RMK AO2 SLP258 T01671050 53002 $

10-Day Weather Forecast

Almanac

Astronomy

Feb. 06, 2016 Rise Set
Actual Time
Civil Twilight
Nautical Twilight
Astronomical Twilight
Moon
Length of Visible Light
Length of Day
Tomorrow will be .
, % of the Moon is Illuminated

Today's Extremes

State Highs State Lows

Community

WunderPhotos

Upload Photos

1,890,987 photos uploaded!

WunderBlog® & News

Nearby

Air Quality

  Air Quality AQ Index Pollutant
Not available.

Snow Depth

Station Depth Elevation

Earthquake Activity

City Distance Mag. Time & Date
Minimum magnitude displayed is 2.5.

Coastal Water Temperatures

Place Temperature

Stations

Nearby Weather Stations

Station Location Temp. Windchill Dew Point Humidity Wind Precip. Elev Updated Type
                   

Watches & Warnings

Wind Advisory
Issued: 3:02 AM PST Feb. 6, 2016 – National Weather Service

... Wind Advisory remains in effect until 2 PM PST this
afternoon...

* winds... northeast winds 15 to 25 with gusts to around 35 mph.

* Impacts... gusty winds will make driving difficult... especially
for drivers of high profile vehicles.

Precautionary/preparedness actions...

When driving... use extra caution. Be prepared for sudden gusty
cross winds.